Time;durP1;ratioP1;P1;durP2;ratioP2;P2;SDS_P1;SDS_P2;PMS_P1;PMS_P2;Temp;Humidity;BMP_temperature;BMP_pressure;BME280_temperature;BME280_humidity;BME280_pressure;Samples;Min_cycle;Max_cycle;Signal;HPM_P1;HPM_P2
2022/01/05 00:01:03;;;;;;;4.20;2.33;;;6.00;99.90;;;;;;8414690;28;20245;-72
2022/01/05 00:05:04;;;;;;;4.70;2.70;;;6.00;99.90;;;;;;8407275;28;20192;-70
2022/01/05 00:09:05;;;;;;;3.13;2.50;;;6.00;99.90;;;;;;8416105;28;20342;-71
2022/01/05 00:13:06;;;;;;;6.13;2.93;;;6.10;99.90;;;;;;8411284;28;20185;-71
2022/01/05 00:17:06;;;;;;;5.63;3.00;;;6.10;99.90;;;;;;8414493;28;20331;-71
2022/01/05 00:21:07;;;;;;;4.00;2.87;;;6.10;99.90;;;;;;8419026;28;20218;-71
2022/01/05 00:25:08;;;;;;;3.10;2.50;;;6.10;99.90;;;;;;8414280;28;21303;-71
2022/01/05 00:29:09;;;;;;;9.67;3.27;;;6.10;99.90;;;;;;8420142;28;20248;-71
2022/01/05 00:33:10;;;;;;;5.27;2.97;;;6.20;99.90;;;;;;8415478;28;20196;-70
2022/01/05 00:37:11;;;;;;;4.23;2.37;;;6.20;99.90;;;;;;8414775;28;20194;-70
2022/01/05 00:41:12;;;;;;;3.87;2.50;;;6.20;99.90;;;;;;8419341;28;20212;-71
2022/01/05 00:45:13;;;;;;;4.63;2.67;;;6.20;99.90;;;;;;8417991;28;20183;-71
2022/01/05 00:49:14;;;;;;;4.73;2.70;;;6.10;99.90;;;;;;8411612;28;20181;-69
2022/01/05 00:53:15;;;;;;;3.10;2.50;;;6.20;99.90;;;;;;8416769;28;20200;-70
2022/01/05 00:57:16;;;;;;;5.17;2.47;;;6.20;99.90;;;;;;8417637;28;20278;-71
2022/01/05 01:01:17;;;;;;;3.27;2.50;;;6.20;99.90;;;;;;8417135;28;20293;-69
2022/01/05 01:05:18;;;;;;;4.90;2.60;;;6.20;99.90;;;;;;8410001;28;20185;-70
2022/01/05 01:09:20;;;;;;;4.27;2.50;;;6.10;99.90;;;;;;8413317;28;20195;-70
2022/01/05 01:13:21;;;;;;;4.63;2.83;;;6.10;99.90;;;;;;8405207;28;20277;-69
2022/01/05 01:17:22;;;;;;;3.30;2.60;;;6.10;99.90;;;;;;8409787;28;20324;-72
2022/01/05 01:21:23;;;;;;;4.97;2.77;;;6.20;99.90;;;;;;8414352;28;20266;-71
2022/01/05 01:25:24;;;;;;;3.30;2.53;;;6.20;99.90;;;;;;8406046;28;20568;-70
2022/01/05 01:29:24;;;;;;;4.73;2.93;;;6.20;99.90;;;;;;8411633;28;20183;-69
2022/01/05 01:33:25;;;;;;;4.67;2.80;;;6.20;99.90;;;;;;8409995;28;20192;-71
2022/01/05 01:37:26;;;;;;;5.37;3.10;;;6.20;99.90;;;;;;8410537;28;20192;-70
2022/01/05 01:41:27;;;;;;;5.23;3.40;;;6.20;99.90;;;;;;8408929;28;20215;-71
2022/01/05 01:45:28;;;;;;;3.57;2.60;;;6.20;99.90;;;;;;8413546;28;20223;-72
2022/01/05 01:49:28;;;;;;;5.37;3.23;;;6.20;99.90;;;;;;8411371;28;20233;-71
2022/01/05 01:53:30;;;;;;;4.80;3.37;;;6.30;99.90;;;;;;8413588;28;20184;-70
2022/01/05 01:57:35;;;;;;;5.83;3.77;;;6.30;99.90;;;;;;8411959;28;20242;-71
2022/01/05 02:01:36;;;;;;;12.17;6.27;;;6.20;99.90;;;;;;8425614;28;20211;-72
2022/01/05 02:05:36;;;;;;;10.13;4.87;;;6.20;99.90;;;;;;8413313;28;20175;-70
2022/01/05 02:09:40;;;;;;;5.50;3.83;;;6.10;99.90;;;;;;8414951;28;20190;-72
2022/01/05 02:13:42;;;;;;;5.37;3.77;;;6.20;99.90;;;;;;8413906;28;20188;-72
2022/01/05 02:18:10;;;;;;;4.57;3.30;;;6.20;99.90;;;;;;8411727;28;20258;-71
2022/01/05 02:22:11;;;;;;;5.10;3.30;;;6.20;99.90;;;;;;8409733;28;20204;-71
2022/01/05 02:26:12;;;;;;;4.53;2.97;;;6.30;99.90;;;;;;8414770;28;20185;-70
2022/01/05 02:30:19;;;;;;;5.17;3.27;;;6.30;99.90;;;;;;8418447;28;20627;-71
2022/01/05 02:34:19;;;;;;;3.90;2.93;;;6.20;99.90;;;;;;8415139;28;20249;-71
2022/01/05 02:38:22;;;;;;;4.20;3.13;;;6.10;99.90;;;;;;8410107;28;20200;-71
2022/01/05 02:42:30;;;;;;;4.83;3.07;;;6.10;99.90;;;;;;8415761;28;20230;-69
2022/01/05 02:46:32;;;;;;;5.07;3.27;;;6.10;99.90;;;;;;8423659;28;20184;-75
2022/01/05 02:50:34;;;;;;;3.77;3.03;;;6.10;99.90;;;;;;8415258;28;20509;-69
2022/01/05 02:54:35;;;;;;;4.67;2.83;;;6.10;99.90;;;;;;8405038;28;20181;-71
2022/01/05 02:58:36;;;;;;;5.77;3.63;;;6.10;99.90;;;;;;8416401;28;20246;-69
2022/01/05 03:02:37;;;;;;;7.33;4.50;;;6.00;99.90;;;;;;8413362;28;20215;-70
2022/01/05 03:06:38;;;;;;;3.53;2.83;;;6.00;99.90;;;;;;8410798;28;20219;-72
2022/01/05 03:10:39;;;;;;;4.97;3.60;;;6.00;99.90;;;;;;8408918;28;20184;-69
2022/01/05 03:14:40;;;;;;;6.70;3.17;;;6.00;99.90;;;;;;8406720;28;20294;-72
2022/01/05 03:18:40;;;;;;;6.20;3.70;;;6.00;99.90;;;;;;8410375;28;20270;-71
2022/01/05 03:22:41;;;;;;;8.60;4.63;;;6.00;99.90;;;;;;8409961;28;20338;-70
2022/01/05 03:26:42;;;;;;;7.23;3.40;;;6.00;99.90;;;;;;8417567;28;20180;-71
2022/01/05 03:30:43;;;;;;;5.93;3.77;;;6.00;99.90;;;;;;8422367;28;20527;-71
2022/01/05 03:34:45;;;;;;;5.60;3.47;;;6.00;99.90;;;;;;8420329;28;20295;-71
2022/01/05 03:38:46;;;;;;;6.40;3.90;;;6.00;99.90;;;;;;8417898;28;20199;-71
2022/01/05 03:42:47;;;;;;;5.83;4.90;;;6.00;99.90;;;;;;8413912;28;20208;-71
2022/01/05 03:46:48;;;;;;;5.00;3.60;;;6.00;99.90;;;;;;8415602;28;20271;-70
2022/01/05 03:50:49;;;;;;;5.47;3.67;;;6.10;99.90;;;;;;8426507;28;20229;-71
2022/01/05 03:54:49;;;;;;;4.77;3.63;;;6.00;99.90;;;;;;8414378;28;20198;-69
2022/01/05 03:58:50;;;;;;;6.57;4.00;;;6.00;99.90;;;;;;8410722;28;20216;-71
2022/01/05 04:02:51;;;;;;;4.67;3.60;;;5.90;99.90;;;;;;8406423;28;20640;-72
2022/01/05 04:06:52;;;;;;;4.83;3.30;;;5.90;99.90;;;;;;8409676;28;20181;-71
2022/01/05 04:10:53;;;;;;;4.17;3.17;;;5.90;99.90;;;;;;8417205;28;20511;-71
2022/01/05 04:14:54;;;;;;;5.43;4.10;;;5.90;99.90;;;;;;8417501;28;20184;-72
2022/01/05 04:18:54;;;;;;;14.03;12.63;;;5.90;99.90;;;;;;8413393;28;20188;-72
2022/01/05 04:22:55;;;;;;;11.40;10.20;;;5.80;99.90;;;;;;8418198;28;20240;-70
2022/01/05 04:26:56;;;;;;;18.27;13.77;;;5.80;99.90;;;;;;8419037;28;20187;-72
2022/01/05 04:30:57;;;;;;;16.40;9.33;;;5.80;99.90;;;;;;8419698;28;20424;-71
2022/01/05 04:34:58;;;;;;;15.13;7.27;;;5.80;99.90;;;;;;8418864;28;20196;-71
2022/01/05 04:38:58;;;;;;;11.10;5.63;;;5.70;99.90;;;;;;8417720;28;20224;-71
2022/01/05 04:43:02;;;;;;;7.73;5.13;;;5.70;99.90;;;;;;8421544;28;20208;-71
2022/01/05 04:47:04;;;;;;;7.83;4.87;;;5.70;99.90;;;;;;8429364;28;20185;-72
2022/01/05 04:51:05;;;;;;;9.13;4.83;;;5.70;99.90;;;;;;8414399;28;20303;-71
2022/01/05 04:55:07;;;;;;;8.50;6.40;;;5.70;99.90;;;;;;8419856;28;20192;-71
2022/01/05 04:59:07;;;;;;;12.70;7.23;;;5.70;99.90;;;;;;8409643;28;20188;-71
2022/01/05 05:03:08;;;;;;;6.57;3.63;;;5.60;99.90;;;;;;8417041;28;20269;-71
2022/01/05 05:07:09;;;;;;;4.63;3.03;;;5.60;99.90;;;;;;8407226;28;20185;-71
2022/01/05 05:11:10;;;;;;;10.53;5.33;;;5.60;99.90;;;;;;8413675;28;20192;-71
2022/01/05 05:15:11;;;;;;;5.00;3.03;;;5.60;99.90;;;;;;8408857;28;20201;-71
2022/01/05 05:19:12;;;;;;;3.33;2.20;;;5.60;99.90;;;;;;8405034;28;20194;-69
2022/01/05 05:23:13;;;;;;;6.97;5.70;;;5.60;99.90;;;;;;8415192;28;20194;-72
2022/01/05 05:27:14;;;;;;;6.90;6.30;;;5.60;99.90;;;;;;8418147;28;20260;-68
2022/01/05 05:31:15;;;;;;;6.53;4.60;;;5.60;99.90;;;;;;8408498;28;20189;-71
2022/01/05 05:35:16;;;;;;;9.50;4.30;;;5.60;99.90;;;;;;8415949;28;20191;-72
2022/01/05 05:39:17;;;;;;;5.97;3.23;;;5.60;99.90;;;;;;8412632;28;20196;-71
2022/01/05 05:44:12;;;;;;;2.90;2.63;;;5.50;99.90;;;;;;8418071;28;20192;-71
2022/01/05 05:48:15;;;;;;;4.50;3.30;;;5.50;99.90;;;;;;8409519;28;20189;-71
2022/01/05 05:52:16;;;;;;;3.47;2.77;;;5.50;99.90;;;;;;8415265;28;20261;-72
2022/01/05 05:56:17;;;;;;;4.37;3.80;;;5.50;99.90;;;;;;8407098;28;20232;-72
2022/01/05 06:00:18;;;;;;;11.53;10.53;;;5.50;99.90;;;;;;8411579;28;20284;-70
2022/01/05 06:04:19;;;;;;;9.33;8.60;;;5.50;99.90;;;;;;8417729;28;20276;-71
2022/01/05 06:13:17;;;;;;;10.47;5.53;;;5.50;99.90;;;;;;8406845;28;20338;-70
2022/01/05 06:17:26;;;;;;;6.07;4.20;;;5.50;99.90;;;;;;8408709;28;20205;-71
2022/01/05 06:21:27;;;;;;;5.60;4.27;;;5.50;99.90;;;;;;8403524;28;20213;-71
2022/01/05 06:25:28;;;;;;;4.83;3.67;;;5.50;99.90;;;;;;8414636;28;20180;-69
2022/01/05 06:29:29;;;;;;;3.87;2.70;;;5.50;99.90;;;;;;8414975;28;20187;-71
2022/01/05 06:33:32;;;;;;;5.33;4.83;;;5.50;99.90;;;;;;8413802;28;20520;-71
2022/01/05 06:37:33;;;;;;;5.53;4.73;;;5.50;99.90;;;;;;8414860;28;20180;-69
2022/01/05 06:41:34;;;;;;;6.90;4.90;;;5.50;99.90;;;;;;8410437;28;20277;-70
2022/01/05 06:45:35;;;;;;;5.13;3.23;;;5.50;99.90;;;;;;8412652;28;20212;-69
2022/01/05 06:49:36;;;;;;;5.47;3.33;;;5.60;99.90;;;;;;8417727;28;20255;-70
2022/01/05 06:53:37;;;;;;;3.50;2.70;;;5.60;99.90;;;;;;8413677;28;20188;-69
2022/01/05 06:57:41;;;;;;;4.47;3.20;;;5.60;99.90;;;;;;8415910;28;20180;-70
2022/01/05 07:01:42;;;;;;;4.00;3.10;;;5.60;99.90;;;;;;8413534;28;20279;-71
2022/01/05 07:05:42;;;;;;;2.93;2.10;;;5.60;99.90;;;;;;8410389;28;20226;-69
2022/01/05 07:09:43;;;;;;;4.37;3.40;;;5.70;99.90;;;;;;8408124;28;20184;-70
2022/01/05 07:13:44;;;;;;;8.30;7.07;;;5.70;99.90;;;;;;8411844;28;20184;-72
2022/01/05 07:17:45;;;;;;;11.53;6.73;;;5.70;99.90;;;;;;8408867;28;20208;-70
2022/01/05 07:21:49;;;;;;;6.50;3.43;;;5.80;99.90;;;;;;8409242;28;20208;-70
2022/01/05 07:25:50;;;;;;;7.00;3.37;;;5.80;99.90;;;;;;8411840;28;20453;-71
2022/01/05 07:29:50;;;;;;;3.27;2.50;;;5.90;99.90;;;;;;8412190;28;20184;-70
2022/01/05 07:33:51;;;;;;;4.57;2.20;;;6.00;99.90;;;;;;8402401;28;20251;-69
2022/01/05 07:37:52;;;;;;;3.57;2.27;;;6.10;99.90;;;;;;8413335;28;20188;-72
2022/01/05 07:41:55;;;;;;;3.50;2.57;;;6.20;99.90;;;;;;8413695;28;20261;-70
2022/01/05 07:45:55;;;;;;;2.13;1.83;;;6.20;99.90;;;;;;8406293;28;20184;-71
2022/01/05 07:49:56;;;;;;;3.10;2.53;;;6.30;99.90;;;;;;8405365;28;20185;-70
2022/01/05 07:53:58;;;;;;;2.43;1.87;;;6.40;99.90;;;;;;8415796;28;20203;-69
2022/01/05 07:57:59;;;;;;;2.30;1.90;;;6.20;99.90;;;;;;8413714;28;20206;-71
2022/01/05 08:02:00;;;;;;;1.70;0.70;;;5.40;99.90;;;;;;8426133;28;20280;-70
2022/01/05 08:06:03;;;;;;;0.70;0.70;;;4.60;99.90;;;;;;8409654;28;20184;-70
2022/01/05 08:10:05;;;;;;;2.60;0.60;;;3.80;99.90;;;;;;8419388;28;20196;-66
2022/01/05 08:14:06;;;;;;;1.67;1.00;;;3.60;99.90;;;;;;8414171;28;20180;-66
2022/01/05 08:18:07;;;;;;;1.23;0.70;;;3.30;99.90;;;;;;8408089;28;20216;-66
2022/01/05 08:22:08;;;;;;;1.80;0.80;;;3.10;99.90;;;;;;8418813;28;20212;-66
2022/01/05 08:26:08;;;;;;;1.83;1.23;;;2.90;99.90;;;;;;8406119;28;21199;-66
2022/01/05 08:30:12;;;;;;;2.10;1.07;;;2.80;99.90;;;;;;8414012;28;20195;-66
2022/01/05 08:34:13;;;;;;;2.53;1.23;;;2.80;99.90;;;;;;8418175;28;20196;-66
2022/01/05 08:38:15;;;;;;;1.33;0.90;;;2.70;99.90;;;;;;8417833;28;20211;-66
2022/01/05 08:42:16;;;;;;;1.80;0.80;;;2.70;99.90;;;;;;8401442;28;20216;-66
2022/01/05 08:46:16;;;;;;;7.97;2.77;;;2.70;99.90;;;;;;8405384;28;20239;-65
2022/01/05 08:50:20;;;;;;;1.50;1.10;;;2.60;99.90;;;;;;8412742;28;20198;-66
2022/01/05 08:54:21;;;;;;;13.80;3.10;;;2.60;99.90;;;;;;8411340;28;20196;-69
2022/01/05 08:58:22;;;;;;;6.80;2.73;;;2.60;99.90;;;;;;8415496;28;20200;-65
2022/01/05 09:02:22;;;;;;;3.13;1.73;;;2.60;99.90;;;;;;8409684;28;20630;-64
2022/01/05 09:06:23;;;;;;;6.90;3.03;;;2.50;99.90;;;;;;8415937;28;20192;-65
2022/01/05 09:10:24;;;;;;;2.47;1.30;;;2.40;99.90;;;;;;8416146;28;20195;-66
2022/01/05 09:14:25;;;;;;;2.60;1.70;;;2.50;99.90;;;;;;8414102;28;20261;-65
2022/01/05 09:18:26;;;;;;;5.33;2.70;;;2.40;99.90;;;;;;8407850;28;20266;-66
2022/01/05 09:22:27;;;;;;;8.00;2.87;;;2.30;99.90;;;;;;8409495;28;20216;-66
2022/01/05 09:26:29;;;;;;;2.10;1.40;;;2.20;99.90;;;;;;8409456;28;20200;-66
2022/01/05 09:30:30;;;;;;;2.40;1.10;;;2.20;99.90;;;;;;8402390;28;20184;-66
2022/01/05 09:34:32;;;;;;;4.07;1.50;;;2.10;99.90;;;;;;8403969;28;20194;-66
2022/01/05 09:42:45;;;;;;;2.10;1.40;;;2.10;99.90;;;;;;8408906;28;20265;-65
2022/01/05 09:46:56;;;;;;;2.80;1.30;;;2.20;99.90;;;;;;8404241;28;20185;-66
2022/01/05 09:51:05;;;;;;;5.87;1.40;;;2.30;99.90;;;;;;8402553;28;20533;-65
2022/01/05 09:55:08;;;;;;;3.23;0.97;;;2.20;99.90;;;;;;8413227;28;20192;-66
2022/01/05 09:59:10;;;;;;;3.13;1.47;;;2.30;99.90;;;;;;8409846;28;20275;-66
2022/01/05 10:03:14;;;;;;;4.03;1.10;;;2.30;99.90;;;;;;8406851;28;20268;-64
2022/01/05 10:07:15;;;;;;;3.17;0.90;;;2.40;99.90;;;;;;8408613;28;20180;-66
2022/01/05 10:11:17;;;;;;;6.17;1.37;;;2.40;99.90;;;;;;8405331;28;20189;-64
2022/01/05 10:15:19;;;;;;;1.07;0.80;;;2.50;99.90;;;;;;8408095;28;20430;-65
2022/01/05 10:19:21;;;;;;;3.67;0.80;;;2.50;99.90;;;;;;8410097;28;20180;-65
2022/01/05 10:23:43;;;;;;;0.70;0.70;;;2.50;99.90;;;;;;8410888;28;20278;-65
2022/01/05 10:27:55;;;;;;;2.90;1.10;;;2.40;99.90;;;;;;8400651;28;20256;-65
2022/01/05 10:31:56;;;;;;;1.10;0.90;;;2.40;99.90;;;;;;8410785;28;20254;-64
2022/01/05 10:35:57;;;;;;;3.57;0.70;;;2.40;99.90;;;;;;8412117;28;20184;-65
2022/01/05 10:40:10;;;;;;;2.73;1.00;;;2.40;99.90;;;;;;8411854;28;20239;-67
2022/01/05 10:44:16;;;;;;;1.57;1.10;;;2.50;99.90;;;;;;8404780;28;20189;-65
2022/01/05 10:48:21;;;;;;;1.33;0.73;;;2.50;99.90;;;;;;8401400;28;20184;-66
2022/01/05 10:52:28;;;;;;;2.30;0.93;;;2.60;99.90;;;;;;8413315;28;20237;-66
2022/01/05 10:56:30;;;;;;;2.10;0.90;;;2.60;99.90;;;;;;8423228;28;20233;-67
2022/01/05 11:00:32;;;;;;;2.57;1.03;;;2.70;99.90;;;;;;8408798;28;20217;-65
2022/01/05 11:04:33;;;;;;;3.20;1.10;;;2.80;99.90;;;;;;8414179;28;20196;-66
2022/01/05 11:08:46;;;;;;;1.93;0.90;;;3.00;99.90;;;;;;8407249;28;20248;-65
2022/01/05 11:12:52;;;;;;;2.10;1.10;;;3.00;99.90;;;;;;8406663;28;20253;-66
2022/01/05 11:16:53;;;;;;;3.17;1.30;;;3.00;99.90;;;;;;8411625;28;20636;-70
2022/01/05 11:21:01;;;;;;;3.77;1.03;;;3.20;99.90;;;;;;8409695;28;20211;-65
2022/01/05 11:25:02;;;;;;;1.60;1.20;;;3.20;99.90;;;;;;8408126;28;20188;-66
2022/01/05 11:29:03;;;;;;;3.40;1.33;;;3.00;99.90;;;;;;8411610;28;20191;-65
2022/01/05 11:33:05;;;;;;;2.20;1.50;;;3.00;99.90;;;;;;8412177;28;20190;-65
2022/01/05 11:37:10;;;;;;;2.73;1.30;;;3.00;99.90;;;;;;8402702;28;20215;-66
2022/01/05 11:41:11;;;;;;;2.67;1.10;;;3.00;99.90;;;;;;8410023;28;20287;-66
2022/01/05 11:45:31;;;;;;;2.23;1.50;;;3.00;99.90;;;;;;8413384;28;20186;-66
2022/01/05 11:49:32;;;;;;;4.60;1.17;;;3.10;99.90;;;;;;8410508;28;20202;-66
2022/01/05 11:53:38;;;;;;;1.73;1.13;;;3.20;99.90;;;;;;8417358;28;20185;-67
2022/01/05 11:58:14;;;;;;;1.50;1.00;;;3.20;99.90;;;;;;8412092;28;20186;-66
2022/01/05 12:02:18;;;;;;;3.70;1.60;;;3.30;99.90;;;;;;8401548;28;20215;-67
2022/01/05 12:06:20;;;;;;;6.53;1.70;;;3.40;99.90;;;;;;8405381;28;20216;-68
2022/01/05 12:10:23;;;;;;;3.20;1.20;;;3.50;99.90;;;;;;8399144;28;21770;-65
2022/01/05 12:14:24;;;;;;;2.47;1.07;;;3.50;99.90;;;;;;8417805;28;20192;-65
2022/01/05 12:18:27;;;;;;;2.53;1.20;;;3.40;99.90;;;;;;8414647;28;20479;-66
2022/01/05 12:22:31;;;;;;;1.67;1.30;;;3.30;99.90;;;;;;8410014;28;20221;-67
2022/01/05 12:26:32;;;;;;;3.20;1.70;;;3.40;99.90;;;;;;8413001;28;20266;-67
2022/01/05 12:30:36;;;;;;;2.60;1.30;;;3.50;99.90;;;;;;8409489;28;20214;-66
2022/01/05 12:34:54;;;;;;;4.87;2.10;;;3.60;99.90;;;;;;8409540;28;20185;-67
2022/01/05 12:38:55;;;;;;;5.50;1.97;;;3.70;99.90;;;;;;8408248;28;20196;-68
2022/01/05 12:43:11;;;;;;;3.77;1.53;;;3.60;99.90;;;;;;8411394;28;20223;-66
2022/01/05 12:47:13;;;;;;;3.50;1.77;;;3.50;99.90;;;;;;8412899;28;20187;-65
2022/01/05 12:51:17;;;;;;;5.30;1.57;;;3.30;99.90;;;;;;8411927;28;20259;-66
2022/01/05 12:55:18;;;;;;;3.80;1.47;;;3.30;99.90;;;;;;8405821;28;20845;-67
2022/01/05 12:59:28;;;;;;;3.93;1.67;;;3.30;99.90;;;;;;8409313;28;20221;-67
2022/01/05 13:03:35;;;;;;;4.20;1.63;;;3.20;99.90;;;;;;8409016;28;20187;-65
2022/01/05 13:07:41;;;;;;;4.90;1.40;;;3.10;99.90;;;;;;8413635;28;20238;-65
2022/01/05 13:11:50;;;;;;;3.93;2.00;;;3.00;99.90;;;;;;8411532;28;20189;-66
2022/01/05 13:15:51;;;;;;;2.23;1.27;;;2.90;99.90;;;;;;8407654;28;20216;-66
2022/01/05 13:20:03;;;;;;;1.90;1.50;;;2.90;99.90;;;;;;8404031;28;20218;-65
2022/01/05 13:24:04;;;;;;;3.40;1.70;;;3.00;99.90;;;;;;8412790;28;20201;-66
2022/01/05 13:28:06;;;;;;;5.03;1.93;;;3.00;99.90;;;;;;8413098;28;20196;-65
2022/01/05 13:32:10;;;;;;;2.73;1.83;;;3.00;99.90;;;;;;8409588;28;20274;-65
2022/01/05 13:36:11;;;;;;;4.40;2.17;;;2.90;99.90;;;;;;8415222;28;20191;-64
2022/01/05 13:40:23;;;;;;;4.43;1.87;;;2.80;99.90;;;;;;8407465;28;20311;-65
2022/01/05 13:44:24;;;;;;;3.03;1.83;;;2.60;99.90;;;;;;8399644;28;20185;-66
2022/01/05 13:48:29;;;;;;;5.37;1.77;;;2.60;99.90;;;;;;8412234;28;20184;-65
2022/01/05 13:52:30;;;;;;;4.47;2.00;;;2.60;99.90;;;;;;8399615;28;20272;-67
2022/01/05 13:56:40;;;;;;;3.67;1.97;;;2.50;99.90;;;;;;8410801;28;20188;-66
2022/01/05 14:00:43;;;;;;;2.93;1.70;;;2.60;99.90;;;;;;8404946;28;20208;-65
2022/01/05 14:04:53;;;;;;;5.10;1.97;;;2.60;99.90;;;;;;8405836;28;20287;-66
2022/01/05 14:08:59;;;;;;;3.17;1.97;;;2.50;99.90;;;;;;8402449;28;20196;-67
2022/01/05 14:13:08;;;;;;;3.27;1.70;;;2.50;99.90;;;;;;8400363;28;20188;-66
2022/01/05 14:17:13;;;;;;;4.50;1.80;;;2.60;99.90;;;;;;8404410;28;20297;-67
2022/01/05 14:21:24;;;;;;;4.20;2.50;;;2.70;99.90;;;;;;8410247;28;20286;-65
2022/01/05 14:25:33;;;;;;;3.63;2.30;;;2.70;99.90;;;;;;8408469;28;20195;-65
2022/01/05 14:29:34;;;;;;;6.07;1.87;;;2.70;99.90;;;;;;8405955;28;20216;-66
2022/01/05 14:33:52;;;;;;;6.53;2.53;;;2.70;99.90;;;;;;8398357;28;20196;-66
2022/01/05 14:37:56;;;;;;;4.37;1.60;;;2.60;99.90;;;;;;8399691;28;20180;-68
2022/01/05 14:42:00;;;;;;;4.23;2.20;;;2.40;99.90;;;;;;8406390;28;20212;-67
2022/01/05 14:46:00;;;;;;;4.40;1.83;;;2.20;99.90;;;;;;8403456;28;20187;-66
2022/01/05 14:50:02;;;;;;;4.97;1.57;;;2.10;99.90;;;;;;8406816;28;20192;-68
2022/01/05 14:54:04;;;;;;;3.83;2.07;;;1.90;99.90;;;;;;8411203;28;20228;-69
2022/01/05 14:58:05;;;;;;;4.20;2.17;;;1.80;99.90;;;;;;8412259;28;20649;-67
2022/01/05 15:02:08;;;;;;;3.73;1.27;;;1.70;99.90;;;;;;8407866;28;20292;-67
2022/01/05 15:06:09;;;;;;;3.07;1.70;;;1.70;99.90;;;;;;8401908;28;20193;-67
2022/01/05 15:10:09;;;;;;;2.80;1.60;;;1.70;99.90;;;;;;8406963;28;20226;-67
2022/01/05 15:14:10;;;;;;;5.77;1.57;;;1.60;99.90;;;;;;8403676;28;20199;-66
2022/01/05 15:18:11;;;;;;;4.53;1.83;;;1.60;99.90;;;;;;8409234;28;20273;-67
2022/01/05 15:22:13;;;;;;;4.47;1.87;;;1.60;99.90;;;;;;8419744;28;20219;-67
2022/01/05 15:26:15;;;;;;;4.80;1.90;;;1.50;99.90;;;;;;8413452;28;20562;-69
2022/01/05 15:30:16;;;;;;;4.33;1.20;;;1.40;99.90;;;;;;8401355;28;20193;-67
2022/01/05 15:34:17;;;;;;;6.90;2.47;;;1.50;99.90;;;;;;8412280;28;20200;-66
2022/01/05 15:38:20;;;;;;;6.17;1.80;;;1.50;99.90;;;;;;8418493;28;20203;-65
2022/01/05 15:42:20;;;;;;;5.73;2.07;;;1.50;89.60;;;;;;8413601;28;20208;-68
2022/01/05 15:46:23;;;;;;;4.80;2.10;;;1.50;25.10;;;;;;8415674;28;20187;-67
2022/01/05 15:50:26;;;;;;;4.10;2.20;;;1.40;27.30;;;;;;8414004;28;20508;-64
2022/01/05 15:54:27;;;;;;;7.70;2.57;;;1.40;14.30;;;;;;8414818;28;20311;-66
2022/01/05 16:02:28;;;;;;;5.30;2.60;;;1.40;39.60;;;;;;8417991;28;20297;-67
2022/01/05 16:06:30;;;;;;;5.80;2.37;;;1.40;20.00;;;;;;8404716;28;20188;-66
2022/01/05 16:10:31;;;;;;;4.77;2.50;;;1.30;31.90;;;;;;8417733;28;20194;-66
2022/01/05 16:14:32;;;;;;;7.00;2.23;;;1.30;99.90;;;;;;8416885;28;20184;-68
2022/01/05 16:18:32;;;;;;;4.37;2.53;;;1.50;1.00;;;;;;8419192;28;20290;-65
2022/01/05 16:22:34;;;;;;;6.60;2.07;;;1.70;1.00;;;;;;8408409;28;20205;-68
2022/01/05 16:26:35;;;;;;;17.73;9.87;;;1.90;99.90;;;;;;8447636;27;20177;-65
2022/01/05 16:30:36;;;;;;;21.40;10.27;;;2.10;99.90;;;;;;8417470;28;20195;-65
2022/01/05 16:34:41;;;;;;;8.07;4.37;;;2.30;99.90;;;;;;8416593;28;20189;-65
2022/01/05 16:38:44;;;;;;;5.07;2.67;;;2.40;1.00;;;;;;8413196;28;20188;-67
2022/01/05 16:42:45;;;;;;;7.67;2.97;;;2.40;99.90;;;;;;8405637;28;20236;-64
2022/01/05 16:46:47;;;;;;;6.53;3.17;;;2.50;99.90;;;;;;8415813;28;20208;-66
2022/01/05 16:50:48;;;;;;;16.73;6.50;;;2.50;99.90;;;;;;8414354;28;20180;-63
2022/01/05 16:54:57;;;;;;;9.20;3.87;;;2.50;1.00;;;;;;8410470;28;20191;-65
2022/01/05 17:03:17;;;;;;;7.27;3.30;;;2.50;99.90;;;;;;8404822;28;20215;-64
2022/01/05 17:07:20;;;;;;;5.70;3.13;;;2.50;99.90;;;;;;8413359;28;20176;-63
2022/01/05 17:11:21;;;;;;;7.40;3.47;;;2.60;1.00;;;;;;8411533;28;20275;-65
2022/01/05 17:15:23;;;;;;;6.07;3.37;;;2.60;99.90;;;;;;8407867;28;20289;-66
2022/01/05 17:19:29;;;;;;;8.40;4.53;;;2.60;99.90;;;;;;8410601;28;20196;-66
2022/01/05 17:23:30;;;;;;;5.57;3.90;;;2.70;99.90;;;;;;8409000;28;20189;-66
2022/01/05 17:27:30;;;;;;;7.77;3.10;;;2.70;99.90;;;;;;8415572;28;20188;-66
2022/01/05 17:31:32;;;;;;;5.07;2.80;;;2.70;19.70;;;;;;8417706;28;20184;-66
2022/01/05 17:35:33;;;;;;;5.70;2.43;;;2.70;99.90;;;;;;8412605;28;20196;-65
2022/01/05 17:39:34;;;;;;;5.17;1.90;;;2.80;99.90;;;;;;8410961;28;20200;-65
2022/01/05 17:43:35;;;;;;;9.80;2.40;;;2.80;99.90;;;;;;8413808;28;20200;-66
2022/01/05 17:47:36;;;;;;;4.27;2.00;;;2.90;99.90;;;;;;8407056;28;20189;-65
2022/01/05 17:51:38;;;;;;;3.73;1.73;;;2.90;99.90;;;;;;8403390;28;20200;-67
2022/01/05 17:55:39;;;;;;;5.47;1.67;;;2.90;6.10;;;;;;8398361;28;20227;-65
2022/01/05 17:59:43;;;;;;;3.07;1.80;;;2.90;99.90;;;;;;8406548;28;20203;-64
2022/01/05 18:03:44;;;;;;;4.17;1.70;;;3.00;1.00;;;;;;8416303;28;20193;-67
2022/01/05 18:07:45;;;;;;;2.50;1.50;;;3.00;1.00;;;;;;8403928;28;20240;-67
2022/01/05 18:11:47;;;;;;;7.00;2.17;;;3.00;1.00;;;;;;8405944;28;20193;-66
2022/01/05 18:15:48;;;;;;;5.97;2.47;;;3.10;1.00;;;;;;8381650;28;20253;-65
2022/01/05 18:19:49;;;;;;;8.73;4.03;;;3.10;99.90;;;;;;8394756;28;20200;-64
2022/01/05 18:23:50;;;;;;;10.07;5.90;;;3.10;99.90;;;;;;8403853;28;20192;-67
2022/01/05 18:27:52;;;;;;;8.93;3.90;;;3.10;99.90;;;;;;8412635;28;20186;-66
2022/01/05 18:31:52;;;;;;;9.70;6.20;;;3.20;99.90;;;;;;8405842;28;20303;-68
2022/01/05 18:35:54;;;;;;;2.80;2.00;;;3.20;1.00;;;;;;8402088;28;20195;-68
2022/01/05 18:39:54;;;;;;;4.23;2.60;;;3.20;99.90;;;;;;8403842;28;20211;-65
2022/01/05 18:43:56;;;;;;;5.73;1.93;;;3.20;99.90;;;;;;8404653;28;20195;-64
2022/01/05 18:47:57;;;;;;;4.40;2.20;;;3.20;1.00;;;;;;8410578;28;20184;-65
2022/01/05 18:51:58;;;;;;;4.43;1.47;;;3.20;1.00;;;;;;8401624;28;20215;-67
2022/01/05 18:55:59;;;;;;;4.47;2.23;;;3.20;99.90;;;;;;8401119;28;20193;-67
2022/01/05 19:00:00;;;;;;;2.57;2.07;;;3.20;99.90;;;;;;8402034;28;20283;-67
2022/01/05 19:04:01;;;;;;;5.17;1.70;;;3.30;25.40;;;;;;8426545;28;20186;-67
2022/01/05 19:08:03;;;;;;;3.13;2.03;;;3.30;73.00;;;;;;8403056;28;20188;-64
2022/01/05 19:12:04;;;;;;;3.13;2.30;;;3.30;99.90;;;;;;8404465;28;20204;-64
2022/01/05 19:16:05;;;;;;;3.83;2.83;;;3.30;99.90;;;;;;8399663;28;20296;-68
2022/01/05 19:20:07;;;;;;;8.73;5.60;;;3.20;99.90;;;;;;8404151;28;20204;-65
2022/01/05 19:24:08;;;;;;;6.50;3.10;;;3.20;1.00;;;;;;8390397;28;20688;-65
2022/01/05 19:28:09;;;;;;;4.07;2.73;;;3.20;99.90;;;;;;8408623;28;20192;-67
2022/01/05 19:32:11;;;;;;;5.53;2.27;;;3.30;1.00;;;;;;8399420;28;20189;-67
2022/01/05 19:36:12;;;;;;;5.33;2.77;;;3.30;99.90;;;;;;8408331;28;20741;-67
2022/01/05 19:40:13;;;;;;;6.13;1.93;;;3.30;99.90;;;;;;8406399;28;20224;-66
2022/01/05 19:44:15;;;;;;;4.00;1.67;;;3.40;1.00;;;;;;8415751;28;20199;-66
2022/01/05 19:48:15;;;;;;;5.57;1.67;;;3.40;99.90;;;;;;8402166;28;20266;-64
2022/01/05 19:52:21;;;;;;;4.17;2.30;;;3.40;1.00;;;;;;8397219;28;20204;-66
2022/01/05 19:56:41;;;;;;;2.77;1.63;;;3.50;1.00;;;;;;8403511;28;20310;-66
2022/01/05 20:00:42;;;;;;;4.27;1.63;;;3.60;99.90;;;;;;8405106;28;20208;-66
2022/01/05 20:04:45;;;;;;;3.47;1.53;;;3.60;1.00;;;;;;8409931;28;20181;-65
2022/01/05 20:08:46;;;;;;;2.73;1.33;;;3.70;99.90;;;;;;8428559;27;20181;-66
2022/01/05 20:12:54;;;;;;;3.60;1.37;;;3.70;99.90;;;;;;8409399;28;20195;-66
2022/01/05 20:16:55;;;;;;;2.03;1.03;;;3.80;27.40;;;;;;8412804;28;20248;-66
2022/01/05 20:20:55;;;;;;;4.57;1.90;;;3.80;10.90;;;;;;8412749;28;20218;-64
2022/01/05 20:24:56;;;;;;;3.87;1.63;;;3.80;99.90;;;;;;8414410;28;20180;-64
2022/01/05 20:28:57;;;;;;;4.27;1.20;;;3.80;61.30;;;;;;8411352;28;20321;-66
2022/01/05 20:33:00;;;;;;;3.10;1.53;;;3.80;25.70;;;;;;8404197;28;20199;-67
2022/01/05 20:37:02;;;;;;;2.03;1.30;;;3.70;99.90;;;;;;8420158;28;20185;-64
2022/01/05 20:41:03;;;;;;;2.83;1.80;;;3.70;99.90;;;;;;8409009;28;20203;-64
2022/01/05 20:45:05;;;;;;;3.53;1.40;;;3.70;99.90;;;;;;8413743;28;20185;-66
2022/01/05 20:49:07;;;;;;;3.13;1.57;;;3.80;23.50;;;;;;8418118;28;20184;-64
2022/01/05 20:53:10;;;;;;;4.10;1.87;;;3.70;1.00;;;;;;8412848;28;20229;-67
2022/01/05 20:57:11;;;;;;;4.20;2.17;;;3.70;99.90;;;;;;8415440;28;20410;-65
2022/01/05 21:01:12;;;;;;;7.07;1.80;;;3.80;99.90;;;;;;8403341;28;20216;-65
2022/01/05 21:05:13;;;;;;;5.27;3.20;;;3.80;1.00;;;;;;8408437;28;20414;-65
2022/01/05 21:09:14;;;;;;;5.70;4.23;;;3.90;1.00;;;;;;8409992;28;20172;-67
2022/01/05 21:13:15;;;;;;;2.30;1.43;;;3.90;99.90;;;;;;8415070;28;20196;-65
2022/01/05 21:17:18;;;;;;;3.10;1.80;;;3.90;99.90;;;;;;8417401;28;20212;-64
2022/01/05 21:21:21;;;;;;;4.03;2.30;;;3.90;99.90;;;;;;8414672;28;20215;-66
2022/01/05 21:25:23;;;;;;;2.57;1.30;;;3.90;99.90;;;;;;8409435;28;20207;-65
2022/01/05 21:29:24;;;;;;;5.10;2.53;;;4.00;99.90;;;;;;8414215;28;20183;-64
2022/01/05 21:33:25;;;;;;;2.83;1.30;;;3.90;99.90;;;;;;8409632;28;20183;-65
2022/01/05 21:37:26;;;;;;;4.10;1.40;;;4.00;99.90;;;;;;8409073;28;20243;-65